sensor_id;sensor_type;location;lat;lon;timestamp;P1;durP1;ratioP1;P2;durP2;ratioP2
23543;SDS011;11950;51.230;4.012;2023-12-20T00:00:08;4.22;;;1.25;;
23543;SDS011;11950;51.230;4.012;2023-12-20T00:02:35;6.15;;;0.93;;
23543;SDS011;11950;51.230;4.012;2023-12-20T00:05:01;6.05;;;0.90;;
23543;SDS011;11950;51.230;4.012;2023-12-20T00:07:27;3.20;;;1.05;;
23543;SDS011;11950;51.230;4.012;2023-12-20T00:09:53;4.80;;;1.00;;
23543;SDS011;11950;51.230;4.012;2023-12-20T00:12:20;4.22;;;1.00;;
23543;SDS011;11950;51.230;4.012;2023-12-20T00:14:46;5.35;;;1.27;;
23543;SDS011;11950;51.230;4.012;2023-12-20T00:17:12;6.85;;;1.00;;
23543;SDS011;11950;51.230;4.012;2023-12-20T00:19:38;3.55;;;1.25;;
23543;SDS011;11950;51.230;4.012;2023-12-20T00:22:05;4.90;;;1.10;;
23543;SDS011;11950;51.230;4.012;2023-12-20T00:24:31;3.38;;;0.90;;
23543;SDS011;11950;51.230;4.012;2023-12-20T00:26:57;5.28;;;0.98;;
23543;SDS011;11950;51.230;4.012;2023-12-20T00:29:23;6.07;;;1.38;;
23543;SDS011;11950;51.230;4.012;2023-12-20T00:31:50;7.00;;;1.20;;
23543;SDS011;11950;51.230;4.012;2023-12-20T00:34:16;4.63;;;1.25;;
23543;SDS011;11950;51.230;4.012;2023-12-20T00:36:42;6.35;;;1.42;;
23543;SDS011;11950;51.230;4.012;2023-12-20T00:39:08;3.72;;;0.90;;
23543;SDS011;11950;51.230;4.012;2023-12-20T00:41:35;4.28;;;1.30;;
23543;SDS011;11950;51.230;4.012;2023-12-20T00:44:01;8.07;;;1.35;;
23543;SDS011;11950;51.230;4.012;2023-12-20T00:46:27;7.68;;;1.33;;
23543;SDS011;11950;51.230;4.012;2023-12-20T00:48:53;6.68;;;1.33;;
23543;SDS011;11950;51.230;4.012;2023-12-20T00:51:20;5.55;;;1.20;;
23543;SDS011;11950;51.230;4.012;2023-12-20T00:53:46;4.32;;;0.93;;
23543;SDS011;11950;51.230;4.012;2023-12-20T00:56:15;2.50;;;1.10;;
23543;SDS011;11950;51.230;4.012;2023-12-20T00:58:41;5.35;;;1.17;;
23543;SDS011;11950;51.230;4.012;2023-12-20T01:01:07;5.78;;;1.67;;
23543;SDS011;11950;51.230;4.012;2023-12-20T01:03:33;7.38;;;1.40;;
23543;SDS011;11950;51.230;4.012;2023-12-20T01:05:59;8.57;;;1.77;;
23543;SDS011;11950;51.230;4.012;2023-12-20T01:08:26;4.45;;;1.30;;
23543;SDS011;11950;51.230;4.012;2023-12-20T01:10:52;5.07;;;1.17;;
23543;SDS011;11950;51.230;4.012;2023-12-20T01:13:18;3.00;;;1.10;;
23543;SDS011;11950;51.230;4.012;2023-12-20T01:15:44;7.85;;;1.65;;
23543;SDS011;11950;51.230;4.012;2023-12-20T01:18:10;9.15;;;1.73;;
23543;SDS011;11950;51.230;4.012;2023-12-20T01:20:37;7.03;;;1.90;;
23543;SDS011;11950;51.230;4.012;2023-12-20T01:23:03;7.80;;;1.63;;
23543;SDS011;11950;51.230;4.012;2023-12-20T01:25:29;3.70;;;1.48;;
23543;SDS011;11950;51.230;4.012;2023-12-20T01:27:55;8.40;;;1.83;;
23543;SDS011;11950;51.230;4.012;2023-12-20T01:30:22;10.02;;;1.90;;
23543;SDS011;11950;51.230;4.012;2023-12-20T01:32:48;5.03;;;1.40;;
23543;SDS011;11950;51.230;4.012;2023-12-20T01:35:14;6.57;;;2.10;;
23543;SDS011;11950;51.230;4.012;2023-12-20T01:37:40;9.35;;;1.60;;
23543;SDS011;11950;51.230;4.012;2023-12-20T01:40:07;4.90;;;1.45;;
23543;SDS011;11950;51.230;4.012;2023-12-20T01:42:33;5.47;;;1.60;;
23543;SDS011;11950;51.230;4.012;2023-12-20T01:45:00;4.93;;;1.77;;
23543;SDS011;11950;51.230;4.012;2023-12-20T01:47:26;9.35;;;1.75;;
23543;SDS011;11950;51.230;4.012;2023-12-20T01:49:52;14.55;;;1.73;;
23543;SDS011;11950;51.230;4.012;2023-12-20T01:52:19;8.73;;;1.65;;
23543;SDS011;11950;51.230;4.012;2023-12-20T01:54:46;7.68;;;1.63;;
23543;SDS011;11950;51.230;4.012;2023-12-20T01:57:13;8.30;;;1.35;;
23543;SDS011;11950;51.230;4.012;2023-12-20T01:59:40;8.65;;;1.52;;
23543;SDS011;11950;51.230;4.012;2023-12-20T02:02:06;9.48;;;1.52;;
23543;SDS011;11950;51.230;4.012;2023-12-20T02:04:33;10.32;;;1.67;;
23543;SDS011;11950;51.230;4.012;2023-12-20T02:07:00;7.30;;;1.63;;
23543;SDS011;11950;51.230;4.012;2023-12-20T02:09:28;5.50;;;1.40;;
23543;SDS011;11950;51.230;4.012;2023-12-20T02:11:54;9.68;;;1.30;;
23543;SDS011;11950;51.230;4.012;2023-12-20T02:14:21;6.20;;;1.15;;
23543;SDS011;11950;51.230;4.012;2023-12-20T02:16:47;10.38;;;1.20;;
23543;SDS011;11950;51.230;4.012;2023-12-20T02:19:14;9.43;;;1.20;;
23543;SDS011;11950;51.230;4.012;2023-12-20T02:21:41;11.07;;;1.10;;
23543;SDS011;11950;51.230;4.012;2023-12-20T02:24:07;4.78;;;1.20;;
23543;SDS011;11950;51.230;4.012;2023-12-20T02:26:33;6.30;;;1.50;;
23543;SDS011;11950;51.230;4.012;2023-12-20T02:29:00;9.07;;;1.63;;
23543;SDS011;11950;51.230;4.012;2023-12-20T02:31:26;8.45;;;1.35;;
23543;SDS011;11950;51.230;4.012;2023-12-20T02:33:53;11.52;;;1.15;;
23543;SDS011;11950;51.230;4.012;2023-12-20T02:36:19;6.50;;;0.93;;
23543;SDS011;11950;51.230;4.012;2023-12-20T02:38:45;7.32;;;1.17;;
23543;SDS011;11950;51.230;4.012;2023-12-20T02:41:12;8.25;;;1.20;;
23543;SDS011;11950;51.230;4.012;2023-12-20T02:43:39;11.02;;;2.05;;
23543;SDS011;11950;51.230;4.012;2023-12-20T02:46:06;6.45;;;1.20;;
23543;SDS011;11950;51.230;4.012;2023-12-20T02:48:32;5.68;;;0.93;;
23543;SDS011;11950;51.230;4.012;2023-12-20T02:50:58;8.15;;;1.35;;
23543;SDS011;11950;51.230;4.012;2023-12-20T02:53:25;7.10;;;1.02;;
23543;SDS011;11950;51.230;4.012;2023-12-20T02:55:51;8.20;;;1.00;;
23543;SDS011;11950;51.230;4.012;2023-12-20T02:58:17;8.52;;;1.30;;
23543;SDS011;11950;51.230;4.012;2023-12-20T03:00:43;5.50;;;1.10;;
23543;SDS011;11950;51.230;4.012;2023-12-20T03:03:09;8.98;;;1.23;;
23543;SDS011;11950;51.230;4.012;2023-12-20T03:05:36;12.13;;;2.25;;
23543;SDS011;11950;51.230;4.012;2023-12-20T03:08:02;7.22;;;1.15;;
23543;SDS011;11950;51.230;4.012;2023-12-20T03:10:28;7.28;;;1.35;;
23543;SDS011;11950;51.230;4.012;2023-12-20T03:12:54;7.65;;;1.23;;
23543;SDS011;11950;51.230;4.012;2023-12-20T03:15:21;9.95;;;1.08;;
23543;SDS011;11950;51.230;4.012;2023-12-20T03:17:47;11.85;;;1.30;;
23543;SDS011;11950;51.230;4.012;2023-12-20T03:20:13;8.23;;;1.40;;
23543;SDS011;11950;51.230;4.012;2023-12-20T03:22:39;10.45;;;1.35;;
23543;SDS011;11950;51.230;4.012;2023-12-20T03:25:06;8.95;;;1.33;;
23543;SDS011;11950;51.230;4.012;2023-12-20T03:27:32;11.10;;;1.08;;
23543;SDS011;11950;51.230;4.012;2023-12-20T03:29:58;6.35;;;0.82;;
23543;SDS011;11950;51.230;4.012;2023-12-20T03:32:24;7.60;;;1.08;;
23543;SDS011;11950;51.230;4.012;2023-12-20T03:34:51;11.98;;;1.50;;
23543;SDS011;11950;51.230;4.012;2023-12-20T03:37:17;12.55;;;1.00;;
23543;SDS011;11950;51.230;4.012;2023-12-20T03:39:43;8.35;;;1.10;;
23543;SDS011;11950;51.230;4.012;2023-12-20T03:42:09;5.80;;;0.90;;
23543;SDS011;11950;51.230;4.012;2023-12-20T03:44:38;5.13;;;1.00;;
23543;SDS011;11950;51.230;4.012;2023-12-20T03:47:05;8.75;;;1.05;;
23543;SDS011;11950;51.230;4.012;2023-12-20T03:49:31;9.30;;;1.20;;
23543;SDS011;11950;51.230;4.012;2023-12-20T03:51:58;8.30;;;1.02;;
23543;SDS011;11950;51.230;4.012;2023-12-20T03:54:24;12.73;;;1.20;;
23543;SDS011;11950;51.230;4.012;2023-12-20T03:56:50;8.52;;;1.55;;
23543;SDS011;11950;51.230;4.012;2023-12-20T03:59:16;8.25;;;1.20;;
23543;SDS011;11950;51.230;4.012;2023-12-20T04:01:43;12.02;;;1.70;;
23543;SDS011;11950;51.230;4.012;2023-12-20T04:04:13;10.07;;;1.60;;
23543;SDS011;11950;51.230;4.012;2023-12-20T04:06:39;6.13;;;1.48;;
23543;SDS011;11950;51.230;4.012;2023-12-20T04:09:05;10.02;;;1.67;;
23543;SDS011;11950;51.230;4.012;2023-12-20T04:11:34;13.40;;;1.67;;
23543;SDS011;11950;51.230;4.012;2023-12-20T04:14:01;7.55;;;1.23;;
23543;SDS011;11950;51.230;4.012;2023-12-20T04:16:28;12.35;;;1.52;;
23543;SDS011;11950;51.230;4.012;2023-12-20T04:18:54;5.47;;;0.85;;
23543;SDS011;11950;51.230;4.012;2023-12-20T04:21:20;8.95;;;1.30;;
23543;SDS011;11950;51.230;4.012;2023-12-20T04:23:46;9.07;;;1.05;;
23543;SDS011;11950;51.230;4.012;2023-12-20T04:26:13;12.73;;;1.73;;
23543;SDS011;11950;51.230;4.012;2023-12-20T04:28:39;12.05;;;1.23;;
23543;SDS011;11950;51.230;4.012;2023-12-20T04:31:05;11.10;;;1.63;;
23543;SDS011;11950;51.230;4.012;2023-12-20T04:33:31;7.78;;;1.10;;
23543;SDS011;11950;51.230;4.012;2023-12-20T04:35:58;7.80;;;1.13;;
23543;SDS011;11950;51.230;4.012;2023-12-20T04:38:26;8.02;;;1.20;;
23543;SDS011;11950;51.230;4.012;2023-12-20T04:40:52;8.10;;;1.65;;
23543;SDS011;11950;51.230;4.012;2023-12-20T04:43:18;7.00;;;1.20;;
23543;SDS011;11950;51.230;4.012;2023-12-20T04:45:44;11.82;;;1.52;;
23543;SDS011;11950;51.230;4.012;2023-12-20T04:48:10;6.30;;;0.95;;
23543;SDS011;11950;51.230;4.012;2023-12-20T04:50:37;11.98;;;1.17;;
23543;SDS011;11950;51.230;4.012;2023-12-20T04:53:03;8.18;;;1.75;;
23543;SDS011;11950;51.230;4.012;2023-12-20T04:55:30;14.05;;;1.30;;
23543;SDS011;11950;51.230;4.012;2023-12-20T04:57:56;10.48;;;1.60;;
23543;SDS011;11950;51.230;4.012;2023-12-20T05:00:22;6.72;;;1.38;;
23543;SDS011;11950;51.230;4.012;2023-12-20T05:02:49;9.57;;;0.95;;
23543;SDS011;11950;51.230;4.012;2023-12-20T05:05:15;9.05;;;1.52;;
23543;SDS011;11950;51.230;4.012;2023-12-20T05:07:43;10.13;;;1.00;;
23543;SDS011;11950;51.230;4.012;2023-12-20T05:10:09;9.30;;;1.08;;
23543;SDS011;11950;51.230;4.012;2023-12-20T05:12:36;6.03;;;1.00;;
23543;SDS011;11950;51.230;4.012;2023-12-20T05:15:02;7.97;;;0.95;;
23543;SDS011;11950;51.230;4.012;2023-12-20T05:17:29;9.10;;;1.08;;
23543;SDS011;11950;51.230;4.012;2023-12-20T05:19:55;12.80;;;1.10;;
23543;SDS011;11950;51.230;4.012;2023-12-20T05:22:22;12.20;;;1.08;;
23543;SDS011;11950;51.230;4.012;2023-12-20T05:24:48;11.07;;;1.15;;
23543;SDS011;11950;51.230;4.012;2023-12-20T05:27:14;6.50;;;0.90;;
23543;SDS011;11950;51.230;4.012;2023-12-20T05:29:41;7.75;;;1.40;;
23543;SDS011;11950;51.230;4.012;2023-12-20T05:32:07;8.90;;;1.45;;
23543;SDS011;11950;51.230;4.012;2023-12-20T05:34:33;7.78;;;0.85;;
23543;SDS011;11950;51.230;4.012;2023-12-20T05:36:59;7.32;;;1.38;;
23543;SDS011;11950;51.230;4.012;2023-12-20T05:39:27;10.07;;;0.95;;
23543;SDS011;11950;51.230;4.012;2023-12-20T05:41:53;7.32;;;0.80;;
23543;SDS011;11950;51.230;4.012;2023-12-20T05:44:20;8.55;;;1.02;;
23543;SDS011;11950;51.230;4.012;2023-12-20T05:46:46;9.10;;;1.27;;
23543;SDS011;11950;51.230;4.012;2023-12-20T05:49:12;6.55;;;1.05;;
23543;SDS011;11950;51.230;4.012;2023-12-20T05:51:39;7.97;;;1.00;;
23543;SDS011;11950;51.230;4.012;2023-12-20T05:54:05;14.98;;;0.90;;
23543;SDS011;11950;51.230;4.012;2023-12-20T05:56:31;13.35;;;1.00;;
23543;SDS011;11950;51.230;4.012;2023-12-20T05:58:58;7.38;;;1.30;;
23543;SDS011;11950;51.230;4.012;2023-12-20T06:01:24;10.05;;;1.20;;
23543;SDS011;11950;51.230;4.012;2023-12-20T06:03:50;8.00;;;1.00;;
23543;SDS011;11950;51.230;4.012;2023-12-20T06:06:17;9.93;;;1.65;;
23543;SDS011;11950;51.230;4.012;2023-12-20T06:08:43;10.98;;;1.02;;
23543;SDS011;11950;51.230;4.012;2023-12-20T06:11:09;4.93;;;1.15;;
23543;SDS011;11950;51.230;4.012;2023-12-20T06:13:36;8.07;;;1.00;;
23543;SDS011;11950;51.230;4.012;2023-12-20T06:16:03;8.15;;;1.05;;
23543;SDS011;11950;51.230;4.012;2023-12-20T06:18:30;10.88;;;1.10;;
23543;SDS011;11950;51.230;4.012;2023-12-20T06:20:57;8.35;;;0.80;;
23543;SDS011;11950;51.230;4.012;2023-12-20T06:23:23;7.05;;;1.10;;
23543;SDS011;11950;51.230;4.012;2023-12-20T06:25:49;8.00;;;0.80;;
23543;SDS011;11950;51.230;4.012;2023-12-20T06:28:15;7.60;;;0.90;;
23543;SDS011;11950;51.230;4.012;2023-12-20T06:30:42;4.50;;;0.70;;
23543;SDS011;11950;51.230;4.012;2023-12-20T06:33:08;3.10;;;1.00;;
23543;SDS011;11950;51.230;4.012;2023-12-20T06:35:35;12.40;;;1.08;;
23543;SDS011;11950;51.230;4.012;2023-12-20T06:38:01;5.68;;;0.90;;
23543;SDS011;11950;51.230;4.012;2023-12-20T06:40:29;9.70;;;0.90;;
23543;SDS011;11950;51.230;4.012;2023-12-20T06:42:55;10.43;;;1.25;;
23543;SDS011;11950;51.230;4.012;2023-12-20T06:45:21;11.00;;;1.40;;
23543;SDS011;11950;51.230;4.012;2023-12-20T06:47:47;7.15;;;1.38;;
23543;SDS011;11950;51.230;4.012;2023-12-20T06:50:13;6.88;;;1.35;;
23543;SDS011;11950;51.230;4.012;2023-12-20T06:52:40;16.27;;;1.73;;
23543;SDS011;11950;51.230;4.012;2023-12-20T06:55:06;8.60;;;1.30;;
23543;SDS011;11950;51.230;4.012;2023-12-20T06:57:32;10.82;;;1.38;;
23543;SDS011;11950;51.230;4.012;2023-12-20T07:00:02;10.05;;;1.40;;
23543;SDS011;11950;51.230;4.012;2023-12-20T07:02:29;9.65;;;1.50;;
23543;SDS011;11950;51.230;4.012;2023-12-20T07:04:57;9.90;;;1.40;;
23543;SDS011;11950;51.230;4.012;2023-12-20T07:07:23;15.48;;;1.60;;
23543;SDS011;11950;51.230;4.012;2023-12-20T07:09:50;11.13;;;1.30;;
23543;SDS011;11950;51.230;4.012;2023-12-20T07:12:16;6.97;;;1.10;;
23543;SDS011;11950;51.230;4.012;2023-12-20T07:14:44;9.65;;;1.20;;
23543;SDS011;11950;51.230;4.012;2023-12-20T07:17:11;8.68;;;1.50;;
23543;SDS011;11950;51.230;4.012;2023-12-20T07:19:39;8.65;;;1.30;;
23543;SDS011;11950;51.230;4.012;2023-12-20T07:22:05;13.68;;;1.95;;
23543;SDS011;11950;51.230;4.012;2023-12-20T07:24:32;5.95;;;1.30;;
23543;SDS011;11950;51.230;4.012;2023-12-20T07:26:59;7.15;;;1.10;;
23543;SDS011;11950;51.230;4.012;2023-12-20T07:29:26;6.35;;;1.55;;
23543;SDS011;11950;51.230;4.012;2023-12-20T07:31:52;8.15;;;1.23;;
23543;SDS011;11950;51.230;4.012;2023-12-20T07:34:20;11.35;;;1.55;;
23543;SDS011;11950;51.230;4.012;2023-12-20T07:36:46;10.60;;;1.20;;
23543;SDS011;11950;51.230;4.012;2023-12-20T07:39:13;8.00;;;0.95;;
23543;SDS011;11950;51.230;4.012;2023-12-20T07:41:40;5.13;;;1.00;;
23543;SDS011;11950;51.230;4.012;2023-12-20T07:44:06;10.20;;;0.95;;
23543;SDS011;11950;51.230;4.012;2023-12-20T07:46:33;7.30;;;1.08;;
23543;SDS011;11950;51.230;4.012;2023-12-20T07:48:59;7.07;;;1.00;;
23543;SDS011;11950;51.230;4.012;2023-12-20T07:51:25;5.97;;;1.02;;
23543;SDS011;11950;51.230;4.012;2023-12-20T07:53:52;8.27;;;0.90;;
23543;SDS011;11950;51.230;4.012;2023-12-20T07:56:18;6.55;;;1.20;;
23543;SDS011;11950;51.230;4.012;2023-12-20T07:58:45;6.13;;;1.25;;
23543;SDS011;11950;51.230;4.012;2023-12-20T08:01:15;7.90;;;1.85;;
23543;SDS011;11950;51.230;4.012;2023-12-20T08:03:42;8.48;;;1.25;;
23543;SDS011;11950;51.230;4.012;2023-12-20T08:06:08;8.52;;;1.20;;
23543;SDS011;11950;51.230;4.012;2023-12-20T08:08:35;4.80;;;1.40;;
23543;SDS011;11950;51.230;4.012;2023-12-20T08:11:01;5.78;;;1.42;;
23543;SDS011;11950;51.230;4.012;2023-12-20T08:13:28;13.02;;;1.38;;
23543;SDS011;11950;51.230;4.012;2023-12-20T08:15:55;5.40;;;1.10;;
23543;SDS011;11950;51.230;4.012;2023-12-20T08:18:21;7.18;;;1.67;;
23543;SDS011;11950;51.230;4.012;2023-12-20T08:20:48;12.43;;;1.95;;
23543;SDS011;11950;51.230;4.012;2023-12-20T08:23:15;9.32;;;1.70;;
23543;SDS011;11950;51.230;4.012;2023-12-20T08:25:41;7.07;;;1.30;;
23543;SDS011;11950;51.230;4.012;2023-12-20T08:28:07;8.25;;;1.30;;
23543;SDS011;11950;51.230;4.012;2023-12-20T08:30:33;6.10;;;1.23;;
23543;SDS011;11950;51.230;4.012;2023-12-20T08:33:00;14.85;;;1.40;;
23543;SDS011;11950;51.230;4.012;2023-12-20T08:35:26;9.20;;;1.45;;
23543;SDS011;11950;51.230;4.012;2023-12-20T08:37:53;8.73;;;1.75;;
23543;SDS011;11950;51.230;4.012;2023-12-20T08:40:19;5.80;;;1.20;;
23543;SDS011;11950;51.230;4.012;2023-12-20T08:42:46;8.45;;;1.80;;
23543;SDS011;11950;51.230;4.012;2023-12-20T08:45:12;14.40;;;1.92;;
23543;SDS011;11950;51.230;4.012;2023-12-20T08:47:38;19.67;;;2.72;;
23543;SDS011;11950;51.230;4.012;2023-12-20T08:50:06;8.40;;;2.33;;
23543;SDS011;11950;51.230;4.012;2023-12-20T08:52:33;6.95;;;2.58;;
23543;SDS011;11950;51.230;4.012;2023-12-20T08:54:59;14.02;;;3.17;;
23543;SDS011;11950;51.230;4.012;2023-12-20T08:57:26;9.85;;;3.00;;
23543;SDS011;11950;51.230;4.012;2023-12-20T08:59:52;14.80;;;3.17;;
23543;SDS011;11950;51.230;4.012;2023-12-20T09:02:18;10.73;;;3.30;;
23543;SDS011;11950;51.230;4.012;2023-12-20T09:04:44;6.50;;;3.42;;
23543;SDS011;11950;51.230;4.012;2023-12-20T09:07:23;12.70;;;3.28;;
23543;SDS011;11950;51.230;4.012;2023-12-20T09:09:50;8.30;;;2.15;;
23543;SDS011;11950;51.230;4.012;2023-12-20T09:12:20;5.82;;;1.92;;
23543;SDS011;11950;51.230;4.012;2023-12-20T09:14:46;7.10;;;1.48;;
23543;SDS011;11950;51.230;4.012;2023-12-20T09:17:14;7.97;;;1.17;;
23543;SDS011;11950;51.230;4.012;2023-12-20T09:19:42;4.80;;;1.10;;
23543;SDS011;11950;51.230;4.012;2023-12-20T09:22:12;6.30;;;1.23;;
23543;SDS011;11950;51.230;4.012;2023-12-20T09:24:38;5.65;;;1.02;;
23543;SDS011;11950;51.230;4.012;2023-12-20T09:27:05;7.97;;;1.20;;
23543;SDS011;11950;51.230;4.012;2023-12-20T09:29:31;7.72;;;1.10;;
23543;SDS011;11950;51.230;4.012;2023-12-20T09:31:57;11.10;;;1.60;;
23543;SDS011;11950;51.230;4.012;2023-12-20T09:34:24;5.15;;;1.00;;
23543;SDS011;11950;51.230;4.012;2023-12-20T09:36:51;9.98;;;1.20;;
23543;SDS011;11950;51.230;4.012;2023-12-20T09:39:18;5.53;;;1.20;;
23543;SDS011;11950;51.230;4.012;2023-12-20T09:41:49;10.88;;;1.60;;
23543;SDS011;11950;51.230;4.012;2023-12-20T09:44:23;6.03;;;1.00;;
23543;SDS011;11950;51.230;4.012;2023-12-20T09:46:50;6.82;;;1.27;;
23543;SDS011;11950;51.230;4.012;2023-12-20T09:49:17;9.10;;;1.73;;
23543;SDS011;11950;51.230;4.012;2023-12-20T09:51:44;7.57;;;1.20;;
23543;SDS011;11950;51.230;4.012;2023-12-20T09:54:15;5.53;;;1.10;;
23543;SDS011;11950;51.230;4.012;2023-12-20T09:56:43;5.65;;;1.20;;
23543;SDS011;11950;51.230;4.012;2023-12-20T09:59:10;9.77;;;1.40;;
23543;SDS011;11950;51.230;4.012;2023-12-20T10:01:37;9.73;;;1.35;;
23543;SDS011;11950;51.230;4.012;2023-12-20T10:04:05;7.60;;;1.10;;
23543;SDS011;11950;51.230;4.012;2023-12-20T10:06:52;5.85;;;1.40;;
23543;SDS011;11950;51.230;4.012;2023-12-20T10:09:18;13.13;;;1.38;;
23543;SDS011;11950;51.230;4.012;2023-12-20T10:11:45;7.03;;;1.30;;
23543;SDS011;11950;51.230;4.012;2023-12-20T10:14:12;5.47;;;1.58;;
23543;SDS011;11950;51.230;4.012;2023-12-20T10:16:38;12.52;;;1.40;;
23543;SDS011;11950;51.230;4.012;2023-12-20T10:19:04;7.70;;;1.50;;
23543;SDS011;11950;51.230;4.012;2023-12-20T10:21:31;7.80;;;1.60;;
23543;SDS011;11950;51.230;4.012;2023-12-20T10:23:57;10.57;;;1.83;;
23543;SDS011;11950;51.230;4.012;2023-12-20T10:26:25;6.03;;;1.27;;
23543;SDS011;11950;51.230;4.012;2023-12-20T10:28:55;8.15;;;1.20;;
23543;SDS011;11950;51.230;4.012;2023-12-20T10:31:28;8.77;;;1.50;;
23543;SDS011;11950;51.230;4.012;2023-12-20T10:33:57;13.18;;;1.52;;
23543;SDS011;11950;51.230;4.012;2023-12-20T10:36:25;8.25;;;1.42;;
23543;SDS011;11950;51.230;4.012;2023-12-20T10:38:53;7.10;;;1.50;;
23543;SDS011;11950;51.230;4.012;2023-12-20T10:41:24;7.00;;;1.20;;
23543;SDS011;11950;51.230;4.012;2023-12-20T10:44:00;10.63;;;1.27;;
23543;SDS011;11950;51.230;4.012;2023-12-20T10:46:31;9.10;;;1.23;;
23543;SDS011;11950;51.230;4.012;2023-12-20T10:49:03;9.60;;;1.55;;
23543;SDS011;11950;51.230;4.012;2023-12-20T10:51:31;5.47;;;1.15;;
23543;SDS011;11950;51.230;4.012;2023-12-20T10:53:57;9.13;;;0.90;;
23543;SDS011;11950;51.230;4.012;2023-12-20T10:56:23;9.93;;;1.35;;
23543;SDS011;11950;51.230;4.012;2023-12-20T10:58:50;8.45;;;1.27;;
23543;SDS011;11950;51.230;4.012;2023-12-20T11:01:17;10.95;;;1.52;;
23543;SDS011;11950;51.230;4.012;2023-12-20T11:03:47;6.22;;;1.25;;
23543;SDS011;11950;51.230;4.012;2023-12-20T11:14:54;11.45;;;1.70;;
23543;SDS011;11950;51.230;4.012;2023-12-20T11:17:23;6.63;;;1.10;;
23543;SDS011;11950;51.230;4.012;2023-12-20T11:22:20;4.57;;;0.90;;
23543;SDS011;11950;51.230;4.012;2023-12-20T11:24:47;15.15;;;1.27;;
23543;SDS011;11950;51.230;4.012;2023-12-20T11:27:14;12.57;;;1.20;;
23543;SDS011;11950;51.230;4.012;2023-12-20T11:29:41;7.00;;;1.20;;
23543;SDS011;11950;51.230;4.012;2023-12-20T11:34:54;6.97;;;0.90;;
23543;SDS011;11950;51.230;4.012;2023-12-20T11:37:31;9.60;;;1.15;;
23543;SDS011;11950;51.230;4.012;2023-12-20T11:40:02;13.88;;;1.30;;
23543;SDS011;11950;51.230;4.012;2023-12-20T11:42:32;4.90;;;1.10;;
23543;SDS011;11950;51.230;4.012;2023-12-20T11:45:03;7.30;;;1.33;;
23543;SDS011;11950;51.230;4.012;2023-12-20T11:47:30;8.77;;;1.05;;
23543;SDS011;11950;51.230;4.012;2023-12-20T11:49:57;10.18;;;1.23;;
23543;SDS011;11950;51.230;4.012;2023-12-20T11:52:26;11.88;;;1.35;;
23543;SDS011;11950;51.230;4.012;2023-12-20T11:54:52;6.93;;;1.23;;
23543;SDS011;11950;51.230;4.012;2023-12-20T11:57:18;8.23;;;1.20;;
23543;SDS011;11950;51.230;4.012;2023-12-20T11:59:45;6.32;;;1.40;;
23543;SDS011;11950;51.230;4.012;2023-12-20T12:02:11;10.10;;;1.27;;
23543;SDS011;11950;51.230;4.012;2023-12-20T12:04:38;5.78;;;1.30;;
23543;SDS011;11950;51.230;4.012;2023-12-20T12:07:06;9.88;;;1.58;;
23543;SDS011;11950;51.230;4.012;2023-12-20T12:09:33;8.30;;;1.08;;
23543;SDS011;11950;51.230;4.012;2023-12-20T12:12:00;13.48;;;1.50;;
23543;SDS011;11950;51.230;4.012;2023-12-20T12:14:26;7.25;;;1.20;;
23543;SDS011;11950;51.230;4.012;2023-12-20T12:16:53;9.70;;;0.90;;
23543;SDS011;11950;51.230;4.012;2023-12-20T12:19:23;6.68;;;1.27;;
23543;SDS011;11950;51.230;4.012;2023-12-20T12:21:50;6.97;;;0.80;;
23543;SDS011;11950;51.230;4.012;2023-12-20T12:24:29;11.00;;;1.55;;
23543;SDS011;11950;51.230;4.012;2023-12-20T12:26:57;9.77;;;1.02;;
23543;SDS011;11950;51.230;4.012;2023-12-20T12:29:24;7.93;;;1.50;;
23543;SDS011;11950;51.230;4.012;2023-12-20T12:31:50;10.00;;;0.95;;
23543;SDS011;11950;51.230;4.012;2023-12-20T12:34:17;10.43;;;2.00;;
23543;SDS011;11950;51.230;4.012;2023-12-20T12:36:43;12.07;;;1.20;;
23543;SDS011;11950;51.230;4.012;2023-12-20T12:39:15;7.68;;;1.05;;
23543;SDS011;11950;51.230;4.012;2023-12-20T12:44:09;12.82;;;1.10;;
23543;SDS011;11950;51.230;4.012;2023-12-20T12:46:35;6.65;;;1.02;;
23543;SDS011;11950;51.230;4.012;2023-12-20T12:49:01;5.82;;;1.05;;
23543;SDS011;11950;51.230;4.012;2023-12-20T12:51:28;5.70;;;1.00;;
23543;SDS011;11950;51.230;4.012;2023-12-20T12:53:54;14.40;;;1.10;;
23543;SDS011;11950;51.230;4.012;2023-12-20T12:56:20;7.80;;;1.10;;
23543;SDS011;11950;51.230;4.012;2023-12-20T12:58:47;9.45;;;0.90;;
23543;SDS011;11950;51.230;4.012;2023-12-20T13:01:14;9.65;;;0.95;;
23543;SDS011;11950;51.230;4.012;2023-12-20T13:03:40;19.77;;;5.90;;
23543;SDS011;11950;51.230;4.012;2023-12-20T13:06:06;25.55;;;13.35;;
23543;SDS011;11950;51.230;4.012;2023-12-20T13:08:34;17.38;;;6.40;;
23543;SDS011;11950;51.230;4.012;2023-12-20T13:11:00;10.88;;;2.00;;
23543;SDS011;11950;51.230;4.012;2023-12-20T13:13:30;8.60;;;1.17;;
23543;SDS011;11950;51.230;4.012;2023-12-20T13:15:56;6.00;;;1.08;;
23543;SDS011;11950;51.230;4.012;2023-12-20T13:18:23;10.25;;;1.30;;
23543;SDS011;11950;51.230;4.012;2023-12-20T13:20:50;8.98;;;1.75;;
23543;SDS011;11950;51.230;4.012;2023-12-20T13:23:16;7.22;;;1.30;;
23543;SDS011;11950;51.230;4.012;2023-12-20T13:25:44;6.68;;;0.90;;
23543;SDS011;11950;51.230;4.012;2023-12-20T13:28:13;9.70;;;1.73;;
23543;SDS011;11950;51.230;4.012;2023-12-20T13:30:39;9.82;;;1.48;;
23543;SDS011;11950;51.230;4.012;2023-12-20T13:33:06;6.88;;;1.27;;
23543;SDS011;11950;51.230;4.012;2023-12-20T13:35:33;5.68;;;1.38;;
23543;SDS011;11950;51.230;4.012;2023-12-20T13:38:00;7.18;;;1.40;;
23543;SDS011;11950;51.230;4.012;2023-12-20T13:40:26;7.95;;;1.10;;
23543;SDS011;11950;51.230;4.012;2023-12-20T13:42:54;3.90;;;1.25;;
23543;SDS011;11950;51.230;4.012;2023-12-20T13:45:20;7.88;;;1.13;;
23543;SDS011;11950;51.230;4.012;2023-12-20T13:47:46;7.68;;;1.25;;
23543;SDS011;11950;51.230;4.012;2023-12-20T13:50:13;9.05;;;1.20;;
23543;SDS011;11950;51.230;4.012;2023-12-20T13:52:39;10.88;;;1.00;;
23543;SDS011;11950;51.230;4.012;2023-12-20T13:55:05;7.03;;;1.10;;
23543;SDS011;11950;51.230;4.012;2023-12-20T13:57:33;6.35;;;0.75;;
23543;SDS011;11950;51.230;4.012;2023-12-20T14:00:04;3.67;;;0.80;;
23543;SDS011;11950;51.230;4.012;2023-12-20T14:02:32;8.70;;;1.05;;
23543;SDS011;11950;51.230;4.012;2023-12-20T14:04:59;7.93;;;0.90;;
23543;SDS011;11950;51.230;4.012;2023-12-20T14:07:26;9.15;;;0.80;;
23543;SDS011;11950;51.230;4.012;2023-12-20T14:09:54;10.52;;;0.80;;
23543;SDS011;11950;51.230;4.012;2023-12-20T14:12:21;4.65;;;0.95;;
23543;SDS011;11950;51.230;4.012;2023-12-20T14:14:47;9.40;;;1.05;;
23543;SDS011;11950;51.230;4.012;2023-12-20T14:17:13;5.75;;;1.50;;
23543;SDS011;11950;51.230;4.012;2023-12-20T14:19:40;9.18;;;1.00;;
23543;SDS011;11950;51.230;4.012;2023-12-20T14:22:06;6.32;;;0.80;;
23543;SDS011;11950;51.230;4.012;2023-12-20T14:24:32;6.95;;;0.80;;
23543;SDS011;11950;51.230;4.012;2023-12-20T14:27:00;8.43;;;1.10;;
23543;SDS011;11950;51.230;4.012;2023-12-20T14:29:26;6.43;;;0.80;;
23543;SDS011;11950;51.230;4.012;2023-12-20T14:31:53;4.80;;;0.80;;
23543;SDS011;11950;51.230;4.012;2023-12-20T14:34:19;9.75;;;1.55;;
23543;SDS011;11950;51.230;4.012;2023-12-20T14:36:45;4.63;;;1.10;;
23543;SDS011;11950;51.230;4.012;2023-12-20T14:39:11;6.80;;;0.73;;
23543;SDS011;11950;51.230;4.012;2023-12-20T14:41:39;9.05;;;0.80;;
23543;SDS011;11950;51.230;4.012;2023-12-20T14:44:08;5.90;;;0.77;;
23543;SDS011;11950;51.230;4.012;2023-12-20T14:46:34;6.28;;;1.05;;
23543;SDS011;11950;51.230;4.012;2023-12-20T14:49:00;5.55;;;0.80;;
23543;SDS011;11950;51.230;4.012;2023-12-20T14:51:28;4.90;;;0.80;;
23543;SDS011;11950;51.230;4.012;2023-12-20T14:53:54;3.90;;;0.80;;
23543;SDS011;11950;51.230;4.012;2023-12-20T14:56:22;6.93;;;0.95;;
23543;SDS011;11950;51.230;4.012;2023-12-20T14:58:49;6.43;;;1.23;;